createdAt,value
2022-08-26T00:01:29.089Z,17.80
2022-08-26T00:04:06.881Z,17.76
2022-08-26T00:06:46.115Z,17.71
2022-08-26T00:09:22.974Z,17.67
2022-08-26T00:12:01.132Z,17.62
2022-08-26T00:14:37.074Z,17.58
2022-08-26T00:17:13.722Z,17.55
2022-08-26T00:19:49.894Z,17.51
2022-08-26T00:22:28.808Z,17.48
2022-08-26T00:25:05.107Z,17.44
2022-08-26T00:27:41.918Z,17.40
2022-08-26T00:30:26.502Z,17.38
2022-08-26T00:33:05.080Z,17.33
2022-08-26T00:35:45.273Z,17.28
2022-08-26T00:38:22.293Z,17.23
2022-08-26T00:41:00.501Z,17.18
2022-08-26T00:43:46.224Z,17.14
2022-08-26T00:46:29.892Z,17.09
2022-08-26T00:49:16.917Z,17.04
2022-08-26T00:52:00.047Z,17.00
2022-08-26T00:54:45.388Z,16.94
2022-08-26T00:57:25.507Z,16.91
2022-08-26T01:00:07.394Z,16.88
2022-08-26T01:02:46.933Z,16.87
2022-08-26T01:05:25.541Z,16.85
2022-08-26T01:08:01.548Z,16.83
2022-08-26T01:10:39.836Z,16.81
2022-08-26T01:13:16.710Z,16.79
2022-08-26T01:16:02.272Z,16.77
2022-08-26T01:18:38.406Z,16.75
2022-08-26T01:21:27.783Z,16.73
2022-08-26T01:24:06.690Z,16.71
2022-08-26T01:26:46.331Z,16.69
2022-08-26T01:29:23.904Z,16.66
2022-08-26T01:32:01.507Z,16.64
2022-08-26T01:34:43.255Z,16.61
2022-08-26T01:37:25.028Z,16.59
2022-08-26T01:40:00.333Z,16.57
2022-08-26T01:42:36.920Z,16.54
2022-08-26T01:45:20.610Z,16.52
2022-08-26T01:48:00.621Z,16.49
2022-08-26T01:50:41.327Z,16.46
2022-08-26T01:53:25.143Z,16.42
2022-08-26T01:56:05.712Z,16.39
2022-08-26T01:58:47.618Z,16.35
2022-08-26T02:01:29.023Z,16.33
2022-08-26T02:04:16.964Z,16.29
2022-08-26T02:06:53.359Z,16.25
2022-08-26T02:09:30.877Z,16.21
2022-08-26T02:12:08.792Z,16.17
2022-08-26T02:14:53.428Z,16.14
2022-08-26T02:17:40.629Z,16.11
2022-08-26T02:20:21.780Z,16.07
2022-08-26T02:22:57.678Z,16.03
2022-08-26T02:25:49.467Z,16.00
2022-08-26T02:28:26.792Z,15.97
2022-08-26T02:31:02.898Z,15.92
2022-08-26T02:33:43.191Z,15.90
2022-08-26T02:36:24.039Z,15.88
2022-08-26T02:39:05.353Z,15.84
2022-08-26T02:41:44.879Z,15.82
2022-08-26T02:44:21.293Z,15.79
2022-08-26T02:46:57.319Z,15.77
2022-08-26T02:49:33.683Z,15.73
2022-08-26T02:52:10.058Z,15.70
2022-08-26T02:54:46.630Z,15.67
2022-08-26T02:57:25.524Z,15.64
2022-08-26T03:00:05.617Z,15.62
2022-08-26T03:02:41.612Z,15.59
2022-08-26T03:05:19.899Z,15.56
2022-08-26T03:07:56.459Z,15.54
2022-08-26T03:10:32.760Z,15.51
2022-08-26T03:13:09.145Z,15.48
2022-08-26T03:15:45.943Z,15.45
2022-08-26T03:18:23.856Z,15.42
2022-08-26T03:21:00.286Z,15.39
2022-08-26T03:23:38.581Z,15.36
2022-08-26T03:26:17.355Z,15.32
2022-08-26T03:29:11.358Z,15.30
2022-08-26T03:31:47.555Z,15.28
2022-08-26T03:34:24.470Z,15.25
2022-08-26T03:37:01.886Z,15.23
2022-08-26T03:39:38.238Z,15.22
2022-08-26T03:42:15.096Z,15.21
2022-08-26T03:44:51.618Z,15.19
2022-08-26T03:47:27.835Z,15.18
2022-08-26T03:50:05.594Z,15.17
2022-08-26T03:52:43.896Z,15.17
2022-08-26T03:55:23.620Z,15.18
2022-08-26T03:58:01.063Z,15.20
2022-08-26T04:00:37.275Z,15.22
2022-08-26T04:03:18.500Z,15.26
2022-08-26T04:05:57.371Z,15.32
2022-08-26T04:08:33.568Z,15.38
2022-08-26T04:11:10.584Z,15.45
2022-08-26T04:13:46.727Z,15.54
2022-08-26T04:16:24.127Z,15.63
2022-08-26T04:19:03.032Z,15.75
2022-08-26T04:21:39.503Z,15.88
2022-08-26T04:24:18.242Z,16.01
2022-08-26T04:26:56.542Z,16.18
2022-08-26T04:29:32.862Z,16.38
2022-08-26T04:32:10.663Z,16.64
2022-08-26T04:34:47.434Z,16.95
2022-08-26T04:37:24.628Z,17.39
2022-08-26T04:40:00.865Z,18.07
2022-08-26T04:42:37.994Z,18.82
2022-08-26T04:45:15.858Z,19.61
2022-08-26T04:47:58.263Z,20.39
2022-08-26T04:50:34.754Z,21.16
2022-08-26T04:53:10.669Z,21.87
2022-08-26T04:55:46.751Z,22.59
2022-08-26T04:58:27.055Z,23.30
2022-08-26T05:01:03.201Z,24.00
2022-08-26T05:03:41.014Z,24.72
2022-08-26T05:06:19.772Z,25.45
2022-08-26T05:08:55.977Z,26.13
2022-08-26T05:11:32.198Z,26.77
2022-08-26T05:14:08.497Z,27.34
2022-08-26T05:16:44.659Z,27.89
2022-08-26T05:19:24.884Z,28.40
2022-08-26T05:22:05.663Z,28.92
2022-08-26T05:24:42.081Z,29.44
2022-08-26T05:27:18.510Z,29.98
2022-08-26T05:29:57.281Z,30.44
2022-08-26T05:32:33.294Z,30.94
2022-08-26T05:35:10.949Z,31.42
2022-08-26T05:37:47.008Z,31.78
2022-08-26T05:40:23.416Z,32.09
2022-08-26T05:42:59.913Z,32.40
2022-08-26T05:45:35.883Z,32.56
2022-08-26T05:48:12.172Z,32.78
2022-08-26T05:50:52.466Z,33.12
2022-08-26T05:53:28.446Z,33.45
2022-08-26T05:56:06.356Z,33.82
2022-08-26T05:58:43.764Z,33.96
2022-08-26T06:01:26.804Z,33.98
2022-08-26T06:04:05.183Z,34.03
2022-08-26T06:06:42.861Z,34.15
2022-08-26T06:09:21.626Z,34.25
2022-08-26T06:11:58.895Z,34.30
2022-08-26T06:14:36.170Z,34.33
2022-08-26T06:17:12.916Z,34.48
2022-08-26T06:19:49.392Z,34.52
2022-08-26T06:22:43.473Z,34.63
2022-08-26T06:25:37.210Z,34.87
2022-08-26T06:28:13.733Z,34.88
2022-08-26T06:30:50.331Z,35.02
2022-08-26T06:33:28.959Z,35.18
2022-08-26T06:36:05.825Z,35.31
2022-08-26T06:38:41.959Z,35.50
2022-08-26T06:41:21.242Z,35.76
2022-08-26T06:43:57.853Z,35.92
2022-08-26T06:46:34.099Z,35.97
2022-08-26T06:49:10.774Z,36.07
2022-08-26T06:51:47.183Z,36.13
2022-08-26T06:54:25.110Z,36.27
2022-08-26T06:57:01.427Z,36.43
2022-08-26T06:59:37.724Z,36.65
2022-08-26T07:02:14.986Z,36.77
2022-08-26T07:04:53.891Z,36.66
2022-08-26T07:07:32.956Z,36.62
2022-08-26T07:10:11.282Z,36.71
2022-08-26T07:12:49.197Z,36.80
2022-08-26T07:15:31.023Z,36.84
2022-08-26T07:18:09.312Z,36.84
2022-08-26T07:20:45.887Z,36.91
2022-08-26T07:23:21.849Z,37.10
2022-08-26T07:25:58.588Z,37.29
2022-08-26T07:28:34.668Z,37.46
2022-08-26T07:31:14.468Z,37.45
2022-08-26T07:33:51.296Z,37.23
2022-08-26T07:36:30.431Z,37.04
2022-08-26T07:39:06.991Z,37.03
2022-08-26T07:41:43.168Z,36.95
2022-08-26T07:44:20.085Z,36.77
2022-08-26T07:46:56.382Z,36.60
2022-08-26T07:49:33.020Z,36.38
2022-08-26T07:52:10.445Z,36.27
2022-08-26T07:54:47.103Z,36.19
2022-08-26T07:57:24.296Z,36.17
2022-08-26T08:00:01.404Z,36.25
2022-08-26T08:02:37.777Z,36.14
2022-08-26T08:05:16.529Z,35.96
2022-08-26T08:07:53.722Z,35.91
2022-08-26T08:10:50.259Z,35.83
2022-08-26T08:13:26.482Z,35.77
2022-08-26T08:16:02.614Z,35.70
2022-08-26T08:18:38.842Z,35.73
2022-08-26T08:21:21.753Z,35.65
2022-08-26T08:24:00.907Z,35.43
2022-08-26T08:26:36.802Z,35.36
2022-08-26T08:29:13.031Z,35.34
2022-08-26T08:31:57.962Z,35.21
2022-08-26T08:34:35.000Z,34.94
2022-08-26T08:37:12.561Z,34.73
2022-08-26T08:39:49.020Z,34.59
2022-08-26T08:45:42.035Z,34.22
2022-08-26T08:48:28.011Z,34.05
2022-08-26T08:51:20.318Z,33.81
2022-08-26T08:54:00.123Z,33.51
2022-08-26T08:56:41.201Z,33.28
2022-08-26T08:59:24.177Z,33.01
2022-08-26T09:02:18.264Z,32.62
2022-08-26T09:05:19.853Z,32.04
2022-08-26T09:08:02.941Z,31.50
2022-08-26T09:10:48.423Z,31.07
2022-08-26T09:13:27.186Z,30.67
2022-08-26T09:16:18.938Z,30.28
2022-08-26T09:19:19.355Z,29.92
2022-08-26T09:22:08.779Z,29.53
2022-08-26T09:24:48.402Z,29.23
2022-08-26T09:27:45.235Z,29.06
2022-08-26T09:30:30.140Z,28.96
2022-08-26T09:33:11.737Z,28.84
2022-08-26T09:35:52.353Z,28.78
2022-08-26T09:38:36.290Z,28.77
2022-08-26T09:41:32.226Z,28.71
2022-08-26T09:44:21.921Z,28.61
2022-08-26T09:47:06.128Z,28.55
2022-08-26T09:49:45.788Z,28.62
2022-08-26T09:52:27.924Z,28.66
2022-08-26T09:55:22.055Z,28.61
2022-08-26T09:58:06.814Z,28.53
2022-08-26T10:00:57.395Z,28.48
2022-08-26T10:03:39.593Z,28.49
2022-08-26T10:06:28.746Z,28.57
2022-08-26T10:09:09.746Z,28.63
2022-08-26T10:11:54.255Z,28.71
2022-08-26T10:14:39.641Z,28.75
2022-08-26T10:17:30.771Z,28.80
2022-08-26T10:20:22.974Z,28.85
2022-08-26T10:23:07.191Z,28.89
2022-08-26T10:25:59.050Z,28.89
2022-08-26T10:28:46.846Z,28.87
2022-08-26T10:31:40.574Z,28.84
2022-08-26T10:34:21.140Z,28.87
2022-08-26T10:37:13.623Z,28.87
2022-08-26T10:40:00.990Z,28.95
2022-08-26T10:42:44.140Z,28.99
2022-08-26T10:45:27.623Z,29.01
2022-08-26T10:48:11.164Z,29.01
2022-08-26T10:50:49.760Z,29.02
2022-08-26T10:53:44.637Z,29.04
2022-08-26T10:56:41.427Z,29.04
2022-08-26T10:59:30.150Z,29.04
2022-08-26T11:02:24.210Z,29.08
2022-08-26T11:05:04.778Z,29.12
2022-08-26T11:07:51.439Z,29.16
2022-08-26T11:11:01.352Z,29.18
2022-08-26T11:14:07.545Z,29.22
2022-08-26T11:16:48.562Z,29.28
2022-08-26T11:20:09.019Z,29.34
2022-08-26T11:22:49.855Z,29.41
2022-08-26T11:25:30.230Z,29.46
2022-08-26T11:28:07.833Z,29.49
2022-08-26T11:30:58.085Z,29.52
2022-08-26T11:34:03.020Z,29.54
2022-08-26T11:37:05.080Z,29.57
2022-08-26T11:39:57.626Z,29.58
2022-08-26T11:42:44.460Z,29.59
2022-08-26T11:45:29.489Z,29.60
2022-08-26T11:48:29.791Z,29.60
2022-08-26T11:51:09.207Z,29.64
2022-08-26T11:53:47.471Z,29.70
2022-08-26T11:56:33.355Z,29.75
2022-08-26T11:59:16.658Z,29.79
2022-08-26T12:01:57.464Z,29.81
2022-08-26T12:04:42.090Z,29.82
2022-08-26T12:07:23.958Z,29.86
2022-08-26T12:10:05.820Z,29.88
2022-08-26T12:12:42.606Z,29.90
2022-08-26T12:15:23.030Z,29.93
2022-08-26T12:18:00.489Z,29.96
2022-08-26T12:20:54.068Z,29.99
2022-08-26T12:23:46.868Z,30.04
2022-08-26T12:26:31.573Z,30.06
2022-08-26T12:29:20.339Z,30.03
2022-08-26T12:32:17.704Z,30.01
2022-08-26T12:34:55.221Z,29.97
2022-08-26T12:37:34.983Z,29.98
2022-08-26T12:40:44.099Z,29.98
2022-08-26T12:43:44.908Z,29.98
2022-08-26T12:46:31.018Z,30.01
2022-08-26T12:49:07.100Z,30.04
2022-08-26T12:51:50.747Z,30.05
2022-08-26T12:54:47.754Z,30.08
2022-08-26T12:57:31.872Z,30.08
2022-08-26T13:00:36.118Z,30.06
2022-08-26T13:03:46.092Z,30.06
2022-08-26T13:06:34.683Z,30.06
2022-08-26T13:09:34.356Z,30.06
2022-08-26T13:12:11.671Z,30.05
2022-08-26T13:14:47.704Z,30.05
2022-08-26T13:17:24.319Z,30.04
2022-08-26T13:20:04.133Z,30.04
2022-08-26T13:25:19.662Z,30.05
2022-08-26T13:27:56.468Z,30.07
2022-08-26T13:30:32.558Z,30.07
2022-08-26T13:33:09.648Z,30.08
2022-08-26T13:35:48.739Z,30.11
2022-08-26T13:38:33.260Z,30.11
2022-08-26T13:41:10.481Z,30.12
2022-08-26T13:43:49.660Z,30.12
2022-08-26T13:46:25.754Z,30.12
2022-08-26T13:49:03.013Z,30.12
2022-08-26T13:51:40.244Z,30.12
2022-08-26T13:54:16.246Z,30.12
2022-08-26T13:56:52.313Z,30.13
2022-08-26T13:59:28.568Z,30.12
2022-08-26T14:02:04.963Z,30.12
2022-08-26T14:04:40.994Z,30.13
2022-08-26T14:07:17.115Z,30.11
2022-08-26T14:09:53.095Z,30.10
2022-08-26T14:12:29.557Z,30.10
2022-08-26T14:15:06.082Z,30.09
2022-08-26T14:17:43.624Z,30.07
2022-08-26T14:20:27.296Z,30.05
2022-08-26T14:23:13.658Z,30.04
2022-08-26T14:25:50.238Z,30.04
2022-08-26T14:31:08.859Z,29.98
2022-08-26T14:33:45.875Z,29.94
2022-08-26T14:36:32.339Z,29.91
2022-08-26T14:39:13.252Z,29.89
2022-08-26T14:41:56.141Z,29.87
2022-08-26T14:44:35.594Z,29.86
2022-08-26T14:47:12.223Z,29.87
2022-08-26T14:49:48.208Z,29.88
2022-08-26T14:52:24.347Z,29.87
2022-08-26T14:55:00.345Z,29.84
2022-08-26T14:57:36.268Z,29.83
2022-08-26T15:00:15.639Z,29.79
2022-08-26T15:02:51.936Z,29.77
2022-08-26T15:05:28.534Z,29.75
2022-08-26T15:08:10.665Z,29.74
2022-08-26T15:10:46.921Z,29.70
2022-08-26T15:13:22.923Z,29.67
2022-08-26T15:15:59.015Z,29.63
2022-08-26T15:18:35.562Z,29.61
2022-08-26T15:21:12.880Z,29.60
2022-08-26T15:23:49.693Z,29.58
2022-08-26T15:26:27.607Z,29.55
2022-08-26T15:29:05.203Z,29.53
2022-08-26T15:31:41.546Z,29.51
2022-08-26T15:34:18.813Z,29.48
2022-08-26T15:36:56.831Z,29.46
2022-08-26T15:39:32.902Z,29.42
2022-08-26T15:42:12.248Z,29.38
2022-08-26T15:44:50.316Z,29.33
2022-08-26T15:47:26.339Z,29.29
2022-08-26T15:50:04.654Z,29.25
2022-08-26T15:52:42.203Z,29.20
2022-08-26T15:55:18.862Z,29.14
2022-08-26T15:57:58.436Z,29.09
2022-08-26T16:00:37.445Z,29.05
2022-08-26T16:03:13.553Z,29.00
2022-08-26T16:05:50.663Z,28.94
2022-08-26T16:08:27.213Z,28.88
2022-08-26T16:11:07.124Z,28.83
2022-08-26T16:13:43.230Z,28.76
2022-08-26T16:16:21.513Z,28.68
2022-08-26T16:18:57.966Z,28.61
2022-08-26T16:21:34.104Z,28.52
2022-08-26T16:24:12.015Z,28.43
2022-08-26T16:26:49.076Z,28.36
2022-08-26T16:29:25.682Z,28.28
2022-08-26T16:32:08.684Z,28.20
2022-08-26T16:34:56.379Z,28.10
2022-08-26T16:37:35.444Z,28.00
2022-08-26T16:40:15.947Z,27.92
2022-08-26T16:42:52.063Z,27.83
2022-08-26T16:45:29.226Z,27.72
2022-08-26T16:48:07.208Z,27.62
2022-08-26T16:50:45.074Z,27.52
2022-08-26T16:53:21.459Z,27.41
2022-08-26T16:55:57.534Z,27.29
2022-08-26T16:58:34.099Z,27.17
2022-08-26T17:01:10.394Z,27.06
2022-08-26T17:03:46.554Z,26.94
2022-08-26T17:06:23.084Z,26.80
2022-08-26T17:08:59.134Z,26.66
2022-08-26T17:11:35.863Z,26.51
2022-08-26T17:14:12.104Z,26.36
2022-08-26T17:16:51.261Z,26.20
2022-08-26T17:19:27.278Z,26.02
2022-08-26T17:22:06.061Z,25.85
2022-08-26T17:24:42.094Z,25.67
2022-08-26T17:27:18.175Z,25.46
2022-08-26T17:29:54.794Z,25.23
2022-08-26T17:32:30.752Z,25.00
2022-08-26T17:35:09.392Z,24.77
2022-08-26T17:37:49.153Z,24.53
2022-08-26T17:40:30.747Z,24.31
2022-08-26T17:43:10.356Z,24.09
2022-08-26T17:45:48.528Z,23.87
2022-08-26T17:48:25.425Z,23.66
2022-08-26T17:51:01.544Z,23.44
2022-08-26T17:53:37.658Z,23.23
2022-08-26T17:56:17.497Z,23.04
2022-08-26T17:58:56.939Z,22.84
2022-08-26T18:01:33.495Z,22.63
2022-08-26T18:04:10.238Z,22.45
2022-08-26T18:06:46.587Z,22.28
2022-08-26T18:09:24.189Z,22.12
2022-08-26T18:12:01.241Z,21.97
2022-08-26T18:14:37.858Z,21.83
2022-08-26T18:17:13.945Z,21.67
2022-08-26T18:19:53.776Z,21.54
2022-08-26T18:22:30.095Z,21.41
2022-08-26T18:25:08.750Z,21.29
2022-08-26T18:27:45.264Z,21.12
2022-08-26T18:30:24.114Z,20.96
2022-08-26T18:33:00.329Z,20.80
2022-08-26T18:35:41.243Z,20.67
2022-08-26T18:38:18.793Z,20.54
2022-08-26T18:40:55.490Z,20.42
2022-08-26T18:43:31.750Z,20.30
2022-08-26T18:46:13.328Z,20.21
2022-08-26T18:48:50.863Z,20.13
2022-08-26T18:51:30.764Z,20.08
2022-08-26T18:54:10.390Z,20.01
2022-08-26T18:56:49.393Z,19.94
2022-08-26T18:59:28.454Z,19.87
2022-08-26T19:02:07.574Z,19.78
2022-08-26T19:04:43.819Z,19.70
2022-08-26T19:07:20.208Z,19.61
2022-08-26T19:09:57.096Z,19.52
2022-08-26T19:12:33.376Z,19.41
2022-08-26T19:15:12.495Z,19.30
2022-08-26T19:17:48.746Z,19.21
2022-08-26T19:20:25.098Z,19.18
2022-08-26T19:23:05.757Z,19.16
2022-08-26T19:25:50.896Z,19.13
2022-08-26T19:28:31.814Z,19.08
2022-08-26T19:31:10.570Z,19.02
2022-08-26T19:33:48.332Z,18.94
2022-08-26T19:36:27.136Z,18.88
2022-08-26T19:39:07.792Z,18.81
2022-08-26T19:41:44.516Z,18.76
2022-08-26T19:44:43.909Z,18.70
2022-08-26T19:47:21.451Z,18.65
2022-08-26T19:50:00.704Z,18.60
2022-08-26T19:52:38.743Z,18.55
2022-08-26T19:55:21.238Z,18.51
2022-08-26T19:57:57.851Z,18.46
2022-08-26T20:00:39.793Z,18.43
2022-08-26T20:03:16.474Z,18.39
2022-08-26T20:05:53.553Z,18.35
2022-08-26T20:08:29.904Z,18.31
2022-08-26T20:11:13.021Z,18.28
2022-08-26T20:13:50.969Z,18.24
2022-08-26T20:16:27.487Z,18.21
2022-08-26T20:19:21.421Z,18.18
2022-08-26T20:21:57.750Z,18.15
2022-08-26T20:24:36.418Z,18.12
2022-08-26T20:27:12.556Z,18.09
2022-08-26T20:29:48.562Z,18.06
2022-08-26T20:32:25.440Z,18.03
2022-08-26T20:35:01.713Z,17.99
2022-08-26T20:37:39.035Z,17.96
2022-08-26T20:40:18.045Z,17.93
2022-08-26T20:42:56.771Z,17.90
2022-08-26T20:45:32.904Z,17.87
2022-08-26T20:48:09.968Z,17.84
2022-08-26T20:50:46.451Z,17.81
2022-08-26T20:53:22.660Z,17.78
2022-08-26T20:56:08.267Z,17.74
2022-08-26T20:58:45.915Z,17.71
2022-08-26T21:01:26.795Z,17.69
2022-08-26T21:04:08.900Z,17.66
2022-08-26T21:06:52.077Z,17.63
2022-08-26T21:09:29.964Z,17.61
2022-08-26T21:12:07.867Z,17.58
2022-08-26T21:14:47.721Z,17.56
2022-08-26T21:17:24.130Z,17.53
2022-08-26T21:20:00.554Z,17.49
2022-08-26T21:22:37.089Z,17.46
2022-08-26T21:25:15.264Z,17.44
2022-08-26T21:27:51.219Z,17.41
2022-08-26T21:30:27.615Z,17.39
2022-08-26T21:33:07.777Z,17.37
2022-08-26T21:35:51.797Z,17.35
2022-08-26T21:38:30.901Z,17.33
2022-08-26T21:41:11.967Z,17.30
2022-08-26T21:43:50.149Z,17.28
2022-08-26T21:46:30.154Z,17.26
2022-08-26T21:49:12.953Z,17.23
2022-08-26T21:51:52.282Z,17.23
2022-08-26T21:54:28.440Z,17.20
2022-08-26T21:57:04.487Z,17.18
2022-08-26T21:59:40.544Z,17.16
2022-08-26T22:02:16.821Z,17.13
2022-08-26T22:04:54.183Z,17.12
2022-08-26T22:07:30.410Z,17.10
2022-08-26T22:10:08.147Z,17.08
2022-08-26T22:12:44.320Z,17.05
2022-08-26T22:15:23.315Z,17.01
2022-08-26T22:17:59.701Z,16.97
2022-08-26T22:20:36.490Z,16.94
2022-08-26T22:23:13.749Z,16.90
2022-08-26T22:25:50.209Z,16.86
2022-08-26T22:28:27.480Z,16.83
2022-08-26T22:31:03.861Z,16.80
2022-08-26T22:33:44.802Z,16.77
2022-08-26T22:36:32.598Z,16.74
2022-08-26T22:39:13.459Z,16.71
2022-08-26T22:41:55.320Z,16.69
2022-08-26T22:44:32.567Z,16.66
2022-08-26T22:47:09.891Z,16.63
2022-08-26T22:49:46.916Z,16.61
2022-08-26T22:52:23.069Z,16.59
2022-08-26T22:54:59.203Z,16.56
2022-08-26T22:57:35.698Z,16.56
2022-08-26T23:00:17.990Z,16.55
2022-08-26T23:02:54.128Z,16.54
2022-08-26T23:05:31.130Z,16.53
2022-08-26T23:08:08.730Z,16.51
2022-08-26T23:10:48.142Z,16.49
2022-08-26T23:13:24.649Z,16.47
2022-08-26T23:16:11.094Z,16.46
2022-08-26T23:18:47.491Z,16.43
2022-08-26T23:21:23.872Z,16.41
2022-08-26T23:24:00.046Z,16.39
2022-08-26T23:26:37.749Z,16.36
2022-08-26T23:29:16.619Z,16.33
2022-08-26T23:31:52.995Z,16.30
2022-08-26T23:34:46.379Z,16.27
2022-08-26T23:37:24.779Z,16.22
2022-08-26T23:40:06.168Z,16.19
2022-08-26T23:42:42.625Z,16.16
2022-08-26T23:45:20.062Z,16.13
2022-08-26T23:47:57.335Z,16.10
2022-08-26T23:50:49.060Z,16.06
2022-08-26T23:53:26.942Z,16.02
2022-08-26T23:56:03.035Z,15.99
2022-08-26T23:58:39.235Z,15.96
